sensor_id;sensor_type;location;lat;lon;timestamp;temperature;humidity
46898;DHT22;32646;50.958;6.258;2024-01-27T00:01:47;2.30;99.90
46898;DHT22;32646;50.958;6.258;2024-01-27T00:04:14;2.30;99.90
46898;DHT22;32646;50.958;6.258;2024-01-27T00:06:40;2.30;99.90
46898;DHT22;32646;50.958;6.258;2024-01-27T00:09:07;2.20;99.90
46898;DHT22;32646;50.958;6.258;2024-01-27T00:11:34;2.20;99.90
46898;DHT22;32646;50.958;6.258;2024-01-27T00:14:01;2.20;99.90
46898;DHT22;32646;50.958;6.258;2024-01-27T00:16:27;2.10;99.90
46898;DHT22;32646;50.958;6.258;2024-01-27T00:18:54;2.10;99.90
46898;DHT22;32646;50.958;6.258;2024-01-27T00:21:21;2.00;99.90
46898;DHT22;32646;50.958;6.258;2024-01-27T00:23:47;1.90;99.90
46898;DHT22;32646;50.958;6.258;2024-01-27T00:26:14;1.90;99.90
46898;DHT22;32646;50.958;6.258;2024-01-27T00:28:40;1.90;99.90
46898;DHT22;32646;50.958;6.258;2024-01-27T00:31:07;1.70;99.90
46898;DHT22;32646;50.958;6.258;2024-01-27T00:33:34;1.60;99.90
46898;DHT22;32646;50.958;6.258;2024-01-27T00:36:00;1.60;99.90
46898;DHT22;32646;50.958;6.258;2024-01-27T00:38:27;1.50;99.90
46898;DHT22;32646;50.958;6.258;2024-01-27T00:40:53;1.50;99.90
46898;DHT22;32646;50.958;6.258;2024-01-27T00:43:20;1.50;99.90
46898;DHT22;32646;50.958;6.258;2024-01-27T00:45:47;1.40;99.90
46898;DHT22;32646;50.958;6.258;2024-01-27T00:48:13;1.40;99.90
46898;DHT22;32646;50.958;6.258;2024-01-27T00:50:40;1.30;99.90
46898;DHT22;32646;50.958;6.258;2024-01-27T00:53:07;1.20;99.90
46898;DHT22;32646;50.958;6.258;2024-01-27T00:55:33;1.30;99.90
46898;DHT22;32646;50.958;6.258;2024-01-27T00:58:00;1.20;99.90
46898;DHT22;32646;50.958;6.258;2024-01-27T01:00:26;1.20;99.90
46898;DHT22;32646;50.958;6.258;2024-01-27T01:02:53;1.10;99.90
46898;DHT22;32646;50.958;6.258;2024-01-27T01:05:20;1.10;99.90
46898;DHT22;32646;50.958;6.258;2024-01-27T01:07:46;1.10;99.90
46898;DHT22;32646;50.958;6.258;2024-01-27T01:10:13;1.20;99.90
46898;DHT22;32646;50.958;6.258;2024-01-27T01:12:40;1.30;99.90
46898;DHT22;32646;50.958;6.258;2024-01-27T01:15:07;1.20;99.90
46898;DHT22;32646;50.958;6.258;2024-01-27T01:17:33;1.20;99.90
46898;DHT22;32646;50.958;6.258;2024-01-27T01:20:00;1.10;99.90
46898;DHT22;32646;50.958;6.258;2024-01-27T01:22:27;1.10;99.90
46898;DHT22;32646;50.958;6.258;2024-01-27T01:24:54;0.90;99.90
46898;DHT22;32646;50.958;6.258;2024-01-27T01:27:20;0.90;99.90
46898;DHT22;32646;50.958;6.258;2024-01-27T01:29:47;0.90;99.90
46898;DHT22;32646;50.958;6.258;2024-01-27T01:32:13;0.90;99.90
46898;DHT22;32646;50.958;6.258;2024-01-27T01:34:40;1.10;99.90
46898;DHT22;32646;50.958;6.258;2024-01-27T01:37:07;1.10;99.90
46898;DHT22;32646;50.958;6.258;2024-01-27T01:39:33;1.00;99.90
46898;DHT22;32646;50.958;6.258;2024-01-27T01:42:00;0.80;99.90
46898;DHT22;32646;50.958;6.258;2024-01-27T01:44:30;0.80;99.90
46898;DHT22;32646;50.958;6.258;2024-01-27T01:46:56;0.70;99.90
46898;DHT22;32646;50.958;6.258;2024-01-27T01:49:23;0.80;99.90
46898;DHT22;32646;50.958;6.258;2024-01-27T01:51:50;0.70;99.90
46898;DHT22;32646;50.958;6.258;2024-01-27T01:54:17;0.70;99.90
46898;DHT22;32646;50.958;6.258;2024-01-27T01:56:44;0.70;99.90
46898;DHT22;32646;50.958;6.258;2024-01-27T01:59:11;0.70;99.90
46898;DHT22;32646;50.958;6.258;2024-01-27T02:01:37;0.70;99.90
46898;DHT22;32646;50.958;6.258;2024-01-27T02:04:04;0.70;99.90
46898;DHT22;32646;50.958;6.258;2024-01-27T02:06:31;0.60;99.90
46898;DHT22;32646;50.958;6.258;2024-01-27T02:08:58;0.70;99.90
46898;DHT22;32646;50.958;6.258;2024-01-27T02:11:26;0.80;99.90
46898;DHT22;32646;50.958;6.258;2024-01-27T02:13:52;0.70;99.90
46898;DHT22;32646;50.958;6.258;2024-01-27T02:16:19;0.70;99.90
46898;DHT22;32646;50.958;6.258;2024-01-27T02:18:45;0.90;99.90
46898;DHT22;32646;50.958;6.258;2024-01-27T02:21:12;0.90;99.90
46898;DHT22;32646;50.958;6.258;2024-01-27T02:23:42;0.90;99.90
46898;DHT22;32646;50.958;6.258;2024-01-27T02:26:09;0.90;99.90
46898;DHT22;32646;50.958;6.258;2024-01-27T02:28:36;0.90;99.90
46898;DHT22;32646;50.958;6.258;2024-01-27T02:31:02;0.90;99.90
46898;DHT22;32646;50.958;6.258;2024-01-27T02:33:29;0.90;99.90
46898;DHT22;32646;50.958;6.258;2024-01-27T02:35:56;0.90;99.90
46898;DHT22;32646;50.958;6.258;2024-01-27T02:38:23;0.90;99.90
46898;DHT22;32646;50.958;6.258;2024-01-27T02:40:49;1.00;99.90
46898;DHT22;32646;50.958;6.258;2024-01-27T02:43:16;0.90;99.90
46898;DHT22;32646;50.958;6.258;2024-01-27T02:45:42;1.00;99.90
46898;DHT22;32646;50.958;6.258;2024-01-27T02:48:09;1.10;99.90
46898;DHT22;32646;50.958;6.258;2024-01-27T02:50:36;1.10;99.90
46898;DHT22;32646;50.958;6.258;2024-01-27T02:53:02;1.10;99.90
46898;DHT22;32646;50.958;6.258;2024-01-27T02:55:29;1.10;99.90
46898;DHT22;32646;50.958;6.258;2024-01-27T02:57:55;1.20;99.90
46898;DHT22;32646;50.958;6.258;2024-01-27T03:00:22;1.20;99.90
46898;DHT22;32646;50.958;6.258;2024-01-27T03:02:49;1.20;99.90
46898;DHT22;32646;50.958;6.258;2024-01-27T03:05:15;1.20;99.90
46898;DHT22;32646;50.958;6.258;2024-01-27T03:07:42;1.20;99.90
46898;DHT22;32646;50.958;6.258;2024-01-27T03:10:09;1.20;99.90
46898;DHT22;32646;50.958;6.258;2024-01-27T03:12:35;1.10;99.90
46898;DHT22;32646;50.958;6.258;2024-01-27T03:15:02;1.10;99.90
46898;DHT22;32646;50.958;6.258;2024-01-27T03:17:29;1.00;99.90
46898;DHT22;32646;50.958;6.258;2024-01-27T03:19:55;1.00;99.90
46898;DHT22;32646;50.958;6.258;2024-01-27T03:22:22;0.90;99.90
46898;DHT22;32646;50.958;6.258;2024-01-27T03:24:48;1.00;99.90
46898;DHT22;32646;50.958;6.258;2024-01-27T03:27:15;1.10;99.90
46898;DHT22;32646;50.958;6.258;2024-01-27T03:29:42;1.10;99.90
46898;DHT22;32646;50.958;6.258;2024-01-27T03:32:08;1.20;99.90
46898;DHT22;32646;50.958;6.258;2024-01-27T03:34:35;1.10;99.90
46898;DHT22;32646;50.958;6.258;2024-01-27T03:37:01;1.10;99.90
46898;DHT22;32646;50.958;6.258;2024-01-27T03:39:28;1.20;99.90
46898;DHT22;32646;50.958;6.258;2024-01-27T03:41:55;1.20;99.90
46898;DHT22;32646;50.958;6.258;2024-01-27T03:44:22;1.20;99.90
46898;DHT22;32646;50.958;6.258;2024-01-27T03:46:48;1.30;99.90
46898;DHT22;32646;50.958;6.258;2024-01-27T03:49:15;1.30;99.90
46898;DHT22;32646;50.958;6.258;2024-01-27T03:51:41;1.30;99.90
46898;DHT22;32646;50.958;6.258;2024-01-27T03:54:08;1.30;99.90
46898;DHT22;32646;50.958;6.258;2024-01-27T03:56:35;1.30;99.90
46898;DHT22;32646;50.958;6.258;2024-01-27T03:59:01;1.40;99.90
46898;DHT22;32646;50.958;6.258;2024-01-27T04:01:28;1.40;99.90
46898;DHT22;32646;50.958;6.258;2024-01-27T04:03:54;1.40;99.90
46898;DHT22;32646;50.958;6.258;2024-01-27T04:06:21;1.40;99.90
46898;DHT22;32646;50.958;6.258;2024-01-27T04:08:48;1.30;99.90
46898;DHT22;32646;50.958;6.258;2024-01-27T04:11:22;1.30;99.90
46898;DHT22;32646;50.958;6.258;2024-01-27T04:13:50;1.30;99.90
46898;DHT22;32646;50.958;6.258;2024-01-27T04:16:17;1.40;99.90
46898;DHT22;32646;50.958;6.258;2024-01-27T04:18:43;1.30;99.90
46898;DHT22;32646;50.958;6.258;2024-01-27T04:21:10;1.40;99.90
46898;DHT22;32646;50.958;6.258;2024-01-27T04:23:37;1.40;99.90
46898;DHT22;32646;50.958;6.258;2024-01-27T04:26:04;1.30;99.90
46898;DHT22;32646;50.958;6.258;2024-01-27T04:28:30;1.30;99.90
46898;DHT22;32646;50.958;6.258;2024-01-27T04:30:57;1.20;99.90
46898;DHT22;32646;50.958;6.258;2024-01-27T04:33:23;1.20;99.90
46898;DHT22;32646;50.958;6.258;2024-01-27T04:35:50;1.10;99.90
46898;DHT22;32646;50.958;6.258;2024-01-27T04:38:17;1.20;99.90
46898;DHT22;32646;50.958;6.258;2024-01-27T04:40:43;1.20;99.90
46898;DHT22;32646;50.958;6.258;2024-01-27T04:43:16;1.30;99.90
46898;DHT22;32646;50.958;6.258;2024-01-27T04:45:43;1.30;99.90
46898;DHT22;32646;50.958;6.258;2024-01-27T04:48:09;1.30;99.90
46898;DHT22;32646;50.958;6.258;2024-01-27T04:50:36;1.40;99.90
46898;DHT22;32646;50.958;6.258;2024-01-27T04:53:03;1.30;99.90
46898;DHT22;32646;50.958;6.258;2024-01-27T04:55:29;1.30;99.90
46898;DHT22;32646;50.958;6.258;2024-01-27T04:57:56;1.30;99.90
46898;DHT22;32646;50.958;6.258;2024-01-27T05:00:23;1.30;99.90
46898;DHT22;32646;50.958;6.258;2024-01-27T05:02:50;1.20;99.90
46898;DHT22;32646;50.958;6.258;2024-01-27T05:05:17;1.20;99.90
46898;DHT22;32646;50.958;6.258;2024-01-27T05:07:44;1.20;99.90
46898;DHT22;32646;50.958;6.258;2024-01-27T05:10:11;1.20;99.90
46898;DHT22;32646;50.958;6.258;2024-01-27T05:12:37;1.30;99.90
46898;DHT22;32646;50.958;6.258;2024-01-27T05:15:04;1.20;99.90
46898;DHT22;32646;50.958;6.258;2024-01-27T05:17:31;1.20;99.90
46898;DHT22;32646;50.958;6.258;2024-01-27T05:19:58;1.20;99.90
46898;DHT22;32646;50.958;6.258;2024-01-27T05:22:25;1.20;99.90
46898;DHT22;32646;50.958;6.258;2024-01-27T05:24:51;1.20;99.90
46898;DHT22;32646;50.958;6.258;2024-01-27T05:27:18;1.10;99.90
46898;DHT22;32646;50.958;6.258;2024-01-27T05:29:44;1.10;99.90
46898;DHT22;32646;50.958;6.258;2024-01-27T05:32:11;1.10;99.90
46898;DHT22;32646;50.958;6.258;2024-01-27T05:34:37;0.90;99.90
46898;DHT22;32646;50.958;6.258;2024-01-27T05:37:04;0.70;99.90
46898;DHT22;32646;50.958;6.258;2024-01-27T05:39:31;0.50;99.90
46898;DHT22;32646;50.958;6.258;2024-01-27T05:41:58;0.50;99.90
46898;DHT22;32646;50.958;6.258;2024-01-27T05:44:24;0.30;99.90
46898;DHT22;32646;50.958;6.258;2024-01-27T05:46:51;0.20;99.90
46898;DHT22;32646;50.958;6.258;2024-01-27T05:49:17;0.10;99.90
46898;DHT22;32646;50.958;6.258;2024-01-27T05:51:44;0.10;99.90
46898;DHT22;32646;50.958;6.258;2024-01-27T05:54:11;0.10;99.90
46898;DHT22;32646;50.958;6.258;2024-01-27T05:56:37;0.20;99.90
46898;DHT22;32646;50.958;6.258;2024-01-27T05:59:04;0.20;99.90
46898;DHT22;32646;50.958;6.258;2024-01-27T06:01:31;0.20;99.90
46898;DHT22;32646;50.958;6.258;2024-01-27T06:03:57;0.10;99.90
46898;DHT22;32646;50.958;6.258;2024-01-27T06:06:24;0.20;99.90
46898;DHT22;32646;50.958;6.258;2024-01-27T06:08:51;0.00;99.90
46898;DHT22;32646;50.958;6.258;2024-01-27T06:11:24;0.00;99.90
46898;DHT22;32646;50.958;6.258;2024-01-27T06:13:51;-0.10;99.90
46898;DHT22;32646;50.958;6.258;2024-01-27T06:16:18;-0.20;99.90
46898;DHT22;32646;50.958;6.258;2024-01-27T06:18:45;-0.20;99.90
46898;DHT22;32646;50.958;6.258;2024-01-27T06:21:12;-0.20;99.90
46898;DHT22;32646;50.958;6.258;2024-01-27T06:23:39;-0.30;99.90
46898;DHT22;32646;50.958;6.258;2024-01-27T06:26:07;-0.20;99.90
46898;DHT22;32646;50.958;6.258;2024-01-27T06:28:33;-0.30;99.90
46898;DHT22;32646;50.958;6.258;2024-01-27T06:31:01;-0.20;99.90
46898;DHT22;32646;50.958;6.258;2024-01-27T06:33:27;-0.30;99.90
46898;DHT22;32646;50.958;6.258;2024-01-27T06:35:54;-0.40;99.90
46898;DHT22;32646;50.958;6.258;2024-01-27T06:38:21;-0.40;99.90
46898;DHT22;32646;50.958;6.258;2024-01-27T06:40:47;-0.40;99.90
46898;DHT22;32646;50.958;6.258;2024-01-27T06:43:14;-0.40;99.90
46898;DHT22;32646;50.958;6.258;2024-01-27T06:45:41;-0.30;99.90
46898;DHT22;32646;50.958;6.258;2024-01-27T06:48:07;-0.40;99.90
46898;DHT22;32646;50.958;6.258;2024-01-27T06:50:34;-0.20;99.90
46898;DHT22;32646;50.958;6.258;2024-01-27T06:53:01;-0.30;99.90
46898;DHT22;32646;50.958;6.258;2024-01-27T06:55:28;-0.40;99.90
46898;DHT22;32646;50.958;6.258;2024-01-27T06:57:55;-0.40;99.90
46898;DHT22;32646;50.958;6.258;2024-01-27T07:00:22;-0.30;99.90
46898;DHT22;32646;50.958;6.258;2024-01-27T07:02:49;-0.40;99.90
46898;DHT22;32646;50.958;6.258;2024-01-27T07:05:16;-0.30;99.90
46898;DHT22;32646;50.958;6.258;2024-01-27T07:07:43;-0.30;99.90
46898;DHT22;32646;50.958;6.258;2024-01-27T07:10:09;-0.40;99.90
46898;DHT22;32646;50.958;6.258;2024-01-27T07:12:36;-0.30;99.90
46898;DHT22;32646;50.958;6.258;2024-01-27T07:15:03;-0.20;99.90
46898;DHT22;32646;50.958;6.258;2024-01-27T07:17:29;-0.20;99.90
46898;DHT22;32646;50.958;6.258;2024-01-27T07:19:56;-0.20;99.90
46898;DHT22;32646;50.958;6.258;2024-01-27T07:22:23;-0.30;99.90
46898;DHT22;32646;50.958;6.258;2024-01-27T07:24:50;-0.10;99.90
46898;DHT22;32646;50.958;6.258;2024-01-27T07:27:16;-0.10;99.90
46898;DHT22;32646;50.958;6.258;2024-01-27T07:29:44;-0.20;99.90
46898;DHT22;32646;50.958;6.258;2024-01-27T07:32:11;-0.10;99.90
46898;DHT22;32646;50.958;6.258;2024-01-27T07:34:38;0.10;99.90
46898;DHT22;32646;50.958;6.258;2024-01-27T07:37:04;0.00;99.90
46898;DHT22;32646;50.958;6.258;2024-01-27T07:39:31;0.00;99.90
46898;DHT22;32646;50.958;6.258;2024-01-27T07:41:58;0.10;99.90
46898;DHT22;32646;50.958;6.258;2024-01-27T07:44:24;0.20;99.90
46898;DHT22;32646;50.958;6.258;2024-01-27T07:46:51;0.10;99.90
46898;DHT22;32646;50.958;6.258;2024-01-27T07:49:17;0.10;99.90
46898;DHT22;32646;50.958;6.258;2024-01-27T07:51:44;0.10;99.90
46898;DHT22;32646;50.958;6.258;2024-01-27T07:54:11;0.10;99.90
46898;DHT22;32646;50.958;6.258;2024-01-27T07:56:38;0.20;99.90
46898;DHT22;32646;50.958;6.258;2024-01-27T07:59:04;0.30;99.90
46898;DHT22;32646;50.958;6.258;2024-01-27T08:01:31;0.50;99.90
46898;DHT22;32646;50.958;6.258;2024-01-27T08:03:58;0.60;99.90
46898;DHT22;32646;50.958;6.258;2024-01-27T08:06:29;0.70;99.90
46898;DHT22;32646;50.958;6.258;2024-01-27T08:08:56;1.10;99.90
46898;DHT22;32646;50.958;6.258;2024-01-27T08:11:25;2.50;99.90
46898;DHT22;32646;50.958;6.258;2024-01-27T08:13:51;3.80;99.90
46898;DHT22;32646;50.958;6.258;2024-01-27T08:16:18;4.80;96.10
46898;DHT22;32646;50.958;6.258;2024-01-27T08:18:44;5.80;72.90
46898;DHT22;32646;50.958;6.258;2024-01-27T08:21:11;5.60;57.00
46898;DHT22;32646;50.958;6.258;2024-01-27T08:23:38;5.80;63.70
46898;DHT22;32646;50.958;6.258;2024-01-27T08:26:05;6.10;50.10
46898;DHT22;32646;50.958;6.258;2024-01-27T08:28:32;6.00;54.90
46898;DHT22;32646;50.958;6.258;2024-01-27T08:30:58;6.60;52.50
46898;DHT22;32646;50.958;6.258;2024-01-27T08:33:25;6.30;53.30
46898;DHT22;32646;50.958;6.258;2024-01-27T08:35:52;6.40;48.10
46898;DHT22;32646;50.958;6.258;2024-01-27T08:38:18;7.10;43.50
46898;DHT22;32646;50.958;6.258;2024-01-27T08:40:45;7.80;42.60
46898;DHT22;32646;50.958;6.258;2024-01-27T08:43:12;8.20;30.60
46898;DHT22;32646;50.958;6.258;2024-01-27T08:45:38;7.70;31.00
46898;DHT22;32646;50.958;6.258;2024-01-27T08:48:06;7.30;33.90
46898;DHT22;32646;50.958;6.258;2024-01-27T08:50:32;7.30;36.70
46898;DHT22;32646;50.958;6.258;2024-01-27T08:52:59;7.00;39.90
46898;DHT22;32646;50.958;6.258;2024-01-27T08:55:26;6.90;37.90
46898;DHT22;32646;50.958;6.258;2024-01-27T08:57:52;6.90;35.00
46898;DHT22;32646;50.958;6.258;2024-01-27T09:00:19;7.00;38.40
46898;DHT22;32646;50.958;6.258;2024-01-27T09:02:46;6.40;39.80
46898;DHT22;32646;50.958;6.258;2024-01-27T09:05:12;6.80;40.90
46898;DHT22;32646;50.958;6.258;2024-01-27T09:07:39;7.40;42.10
46898;DHT22;32646;50.958;6.258;2024-01-27T09:10:06;7.90;34.70
46898;DHT22;32646;50.958;6.258;2024-01-27T09:12:33;8.30;30.30
46898;DHT22;32646;50.958;6.258;2024-01-27T09:15:00;8.80;29.30
46898;DHT22;32646;50.958;6.258;2024-01-27T09:17:26;9.80;24.10
46898;DHT22;32646;50.958;6.258;2024-01-27T09:19:53;9.90;22.80
46898;DHT22;32646;50.958;6.258;2024-01-27T09:22:19;9.60;18.70
46898;DHT22;32646;50.958;6.258;2024-01-27T09:24:46;10.40;19.90
46898;DHT22;32646;50.958;6.258;2024-01-27T09:27:13;10.50;18.40
46898;DHT22;32646;50.958;6.258;2024-01-27T09:29:39;10.70;13.80
46898;DHT22;32646;50.958;6.258;2024-01-27T09:32:06;11.00;13.90
46898;DHT22;32646;50.958;6.258;2024-01-27T09:34:33;10.70;15.70
46898;DHT22;32646;50.958;6.258;2024-01-27T09:37:01;10.20;15.40
46898;DHT22;32646;50.958;6.258;2024-01-27T09:39:28;9.60;17.50
46898;DHT22;32646;50.958;6.258;2024-01-27T09:41:54;9.10;23.30
46898;DHT22;32646;50.958;6.258;2024-01-27T09:44:21;9.20;20.30
46898;DHT22;32646;50.958;6.258;2024-01-27T09:46:49;9.70;22.60
46898;DHT22;32646;50.958;6.258;2024-01-27T09:49:16;9.70;23.30
46898;DHT22;32646;50.958;6.258;2024-01-27T09:51:43;9.80;22.10
46898;DHT22;32646;50.958;6.258;2024-01-27T09:54:10;10.20;19.30
46898;DHT22;32646;50.958;6.258;2024-01-27T09:56:37;10.10;18.50
46898;DHT22;32646;50.958;6.258;2024-01-27T09:59:05;10.10;16.90
46898;DHT22;32646;50.958;6.258;2024-01-27T10:01:33;10.30;16.30
46898;DHT22;32646;50.958;6.258;2024-01-27T10:04:01;10.50;15.70
46898;DHT22;32646;50.958;6.258;2024-01-27T10:06:28;10.50;16.60
46898;DHT22;32646;50.958;6.258;2024-01-27T10:08:55;10.30;17.40
46898;DHT22;32646;50.958;6.258;2024-01-27T10:11:23;10.60;17.20
46898;DHT22;32646;50.958;6.258;2024-01-27T10:13:57;11.10;15.80
46898;DHT22;32646;50.958;6.258;2024-01-27T10:16:26;10.90;13.30
46898;DHT22;32646;50.958;6.258;2024-01-27T10:19:00;10.70;13.50
46898;DHT22;32646;50.958;6.258;2024-01-27T10:21:27;10.00;15.20
46898;DHT22;32646;50.958;6.258;2024-01-27T10:23:54;9.80;16.80
46898;DHT22;32646;50.958;6.258;2024-01-27T10:26:20;10.00;19.30
46898;DHT22;32646;50.958;6.258;2024-01-27T10:28:57;10.40;18.00
46898;DHT22;32646;50.958;6.258;2024-01-27T10:31:33;10.30;18.50
46898;DHT22;32646;50.958;6.258;2024-01-27T10:34:00;10.00;14.40
46898;DHT22;32646;50.958;6.258;2024-01-27T10:36:41;10.10;16.40
46898;DHT22;32646;50.958;6.258;2024-01-27T10:39:35;10.50;17.00
46898;DHT22;32646;50.958;6.258;2024-01-27T10:42:02;11.20;20.30
46898;DHT22;32646;50.958;6.258;2024-01-27T10:44:29;12.40;13.30
46898;DHT22;32646;50.958;6.258;2024-01-27T10:46:56;13.20;4.60
46898;DHT22;32646;50.958;6.258;2024-01-27T10:49:28;13.00;8.40
46898;DHT22;32646;50.958;6.258;2024-01-27T10:51:59;12.00;7.00
46898;DHT22;32646;50.958;6.258;2024-01-27T10:54:28;12.50;8.90
46898;DHT22;32646;50.958;6.258;2024-01-27T10:56:56;12.40;6.10
46898;DHT22;32646;50.958;6.258;2024-01-27T10:59:26;11.30;7.30
46898;DHT22;32646;50.958;6.258;2024-01-27T11:01:54;11.70;10.10
46898;DHT22;32646;50.958;6.258;2024-01-27T11:04:21;11.20;8.50
46898;DHT22;32646;50.958;6.258;2024-01-27T11:06:48;12.60;5.80
46898;DHT22;32646;50.958;6.258;2024-01-27T11:09:15;13.40;2.70
46898;DHT22;32646;50.958;6.258;2024-01-27T11:11:45;13.20;2.80
46898;DHT22;32646;50.958;6.258;2024-01-27T11:14:12;12.60;5.10
46898;DHT22;32646;50.958;6.258;2024-01-27T11:16:39;12.90;3.10
46898;DHT22;32646;50.958;6.258;2024-01-27T11:19:07;12.50;1.00
46898;DHT22;32646;50.958;6.258;2024-01-27T11:21:33;12.70;5.00
46898;DHT22;32646;50.958;6.258;2024-01-27T11:24:00;12.50;2.90
46898;DHT22;32646;50.958;6.258;2024-01-27T11:26:27;12.80;5.80
46898;DHT22;32646;50.958;6.258;2024-01-27T11:29:06;11.90;10.60
46898;DHT22;32646;50.958;6.258;2024-01-27T11:31:32;12.90;4.30
46898;DHT22;32646;50.958;6.258;2024-01-27T11:33:59;13.00;6.80
46898;DHT22;32646;50.958;6.258;2024-01-27T11:36:27;12.40;5.60
46898;DHT22;32646;50.958;6.258;2024-01-27T11:38:54;12.00;8.10
46898;DHT22;32646;50.958;6.258;2024-01-27T11:41:28;13.20;3.20
46898;DHT22;32646;50.958;6.258;2024-01-27T11:43:56;13.10;1.80
46898;DHT22;32646;50.958;6.258;2024-01-27T11:46:23;14.00;1.00
46898;DHT22;32646;50.958;6.258;2024-01-27T11:48:50;13.00;1.60
46898;DHT22;32646;50.958;6.258;2024-01-27T11:51:17;13.00;1.00
46898;DHT22;32646;50.958;6.258;2024-01-27T11:53:44;12.70;4.30
46898;DHT22;32646;50.958;6.258;2024-01-27T11:56:11;12.20;2.10
46898;DHT22;32646;50.958;6.258;2024-01-27T11:58:37;12.30;2.90
46898;DHT22;32646;50.958;6.258;2024-01-27T12:01:04;12.00;2.10
46898;DHT22;32646;50.958;6.258;2024-01-27T12:03:32;12.10;5.30
46898;DHT22;32646;50.958;6.258;2024-01-27T12:06:00;11.90;1.80
46898;DHT22;32646;50.958;6.258;2024-01-27T12:08:28;12.40;7.30
46898;DHT22;32646;50.958;6.258;2024-01-27T12:10:55;13.30;1.50
46898;DHT22;32646;50.958;6.258;2024-01-27T12:13:22;12.40;2.10
46898;DHT22;32646;50.958;6.258;2024-01-27T12:15:49;13.00;2.00
46898;DHT22;32646;50.958;6.258;2024-01-27T12:18:15;12.70;1.00
46898;DHT22;32646;50.958;6.258;2024-01-27T12:20:47;12.90;1.00
46898;DHT22;32646;50.958;6.258;2024-01-27T12:23:14;12.60;3.80
46898;DHT22;32646;50.958;6.258;2024-01-27T12:25:42;12.70;1.80
46898;DHT22;32646;50.958;6.258;2024-01-27T12:28:18;13.70;2.40
46898;DHT22;32646;50.958;6.258;2024-01-27T12:30:45;13.00;1.00
46898;DHT22;32646;50.958;6.258;2024-01-27T12:33:12;13.20;1.00
46898;DHT22;32646;50.958;6.258;2024-01-27T12:35:39;13.80;1.00
46898;DHT22;32646;50.958;6.258;2024-01-27T12:38:06;13.70;1.00
46898;DHT22;32646;50.958;6.258;2024-01-27T12:40:32;12.60;1.00
46898;DHT22;32646;50.958;6.258;2024-01-27T12:42:59;13.10;1.80
46898;DHT22;32646;50.958;6.258;2024-01-27T12:45:26;13.20;1.00
46898;DHT22;32646;50.958;6.258;2024-01-27T12:47:56;12.70;1.60
46898;DHT22;32646;50.958;6.258;2024-01-27T12:50:23;13.40;1.00
46898;DHT22;32646;50.958;6.258;2024-01-27T12:52:50;12.70;1.00
46898;DHT22;32646;50.958;6.258;2024-01-27T12:55:16;12.90;1.50
46898;DHT22;32646;50.958;6.258;2024-01-27T12:57:43;12.40;6.30
46898;DHT22;32646;50.958;6.258;2024-01-27T13:00:11;13.70;1.00
46898;DHT22;32646;50.958;6.258;2024-01-27T13:02:39;13.60;1.00
46898;DHT22;32646;50.958;6.258;2024-01-27T13:05:06;12.90;1.00
46898;DHT22;32646;50.958;6.258;2024-01-27T13:07:33;12.30;4.20
46898;DHT22;32646;50.958;6.258;2024-01-27T13:09:59;12.40;6.30
46898;DHT22;32646;50.958;6.258;2024-01-27T13:12:26;11.60;3.00
46898;DHT22;32646;50.958;6.258;2024-01-27T13:14:53;11.90;7.50
46898;DHT22;32646;50.958;6.258;2024-01-27T13:17:19;12.20;3.80
46898;DHT22;32646;50.958;6.258;2024-01-27T13:19:46;11.90;5.90
46898;DHT22;32646;50.958;6.258;2024-01-27T13:22:13;11.90;2.00
46898;DHT22;32646;50.958;6.258;2024-01-27T13:24:40;11.40;4.20
46898;DHT22;32646;50.958;6.258;2024-01-27T13:27:07;11.40;6.00
46898;DHT22;32646;50.958;6.258;2024-01-27T13:29:34;10.80;4.70
46898;DHT22;32646;50.958;6.258;2024-01-27T13:32:01;11.20;3.90
46898;DHT22;32646;50.958;6.258;2024-01-27T13:34:27;11.10;8.40
46898;DHT22;32646;50.958;6.258;2024-01-27T13:36:54;11.30;8.70
46898;DHT22;32646;50.958;6.258;2024-01-27T13:39:21;11.20;8.80
46898;DHT22;32646;50.958;6.258;2024-01-27T13:41:48;11.30;7.70
46898;DHT22;32646;50.958;6.258;2024-01-27T13:44:14;11.50;5.30
46898;DHT22;32646;50.958;6.258;2024-01-27T13:46:41;11.20;3.10
46898;DHT22;32646;50.958;6.258;2024-01-27T13:49:08;11.20;3.10
46898;DHT22;32646;50.958;6.258;2024-01-27T13:51:34;11.50;5.90
46898;DHT22;32646;50.958;6.258;2024-01-27T13:54:01;11.40;3.00
46898;DHT22;32646;50.958;6.258;2024-01-27T13:56:28;11.00;8.00
46898;DHT22;32646;50.958;6.258;2024-01-27T13:58:54;11.60;4.00
46898;DHT22;32646;50.958;6.258;2024-01-27T14:01:21;11.40;3.90
46898;DHT22;32646;50.958;6.258;2024-01-27T14:03:48;11.10;7.60
46898;DHT22;32646;50.958;6.258;2024-01-27T14:06:15;11.00;8.10
46898;DHT22;32646;50.958;6.258;2024-01-27T14:08:41;10.50;6.50
46898;DHT22;32646;50.958;6.258;2024-01-27T14:11:08;11.30;4.00
46898;DHT22;32646;50.958;6.258;2024-01-27T14:13:35;11.20;7.20
46898;DHT22;32646;50.958;6.258;2024-01-27T14:16:02;11.60;3.90
46898;DHT22;32646;50.958;6.258;2024-01-27T14:18:28;11.70;4.00
46898;DHT22;32646;50.958;6.258;2024-01-27T14:20:55;11.60;4.40
46898;DHT22;32646;50.958;6.258;2024-01-27T14:23:22;11.50;5.00
46898;DHT22;32646;50.958;6.258;2024-01-27T14:25:49;11.20;4.60
46898;DHT22;32646;50.958;6.258;2024-01-27T14:28:15;11.50;7.10
46898;DHT22;32646;50.958;6.258;2024-01-27T14:30:42;11.10;7.20
46898;DHT22;32646;50.958;6.258;2024-01-27T14:33:11;10.50;8.40
46898;DHT22;32646;50.958;6.258;2024-01-27T14:35:37;10.20;15.00
46898;DHT22;32646;50.958;6.258;2024-01-27T14:38:04;10.00;17.20
46898;DHT22;32646;50.958;6.258;2024-01-27T14:40:31;10.20;13.90
46898;DHT22;32646;50.958;6.258;2024-01-27T14:42:58;10.60;15.60
46898;DHT22;32646;50.958;6.258;2024-01-27T14:45:25;10.70;13.50
46898;DHT22;32646;50.958;6.258;2024-01-27T14:47:51;10.60;13.00
46898;DHT22;32646;50.958;6.258;2024-01-27T14:50:22;9.60;14.40
46898;DHT22;32646;50.958;6.258;2024-01-27T14:52:49;9.00;18.20
46898;DHT22;32646;50.958;6.258;2024-01-27T14:55:15;9.10;19.20
46898;DHT22;32646;50.958;6.258;2024-01-27T14:57:42;8.90;20.30
46898;DHT22;32646;50.958;6.258;2024-01-27T15:00:09;8.70;22.20
46898;DHT22;32646;50.958;6.258;2024-01-27T15:02:36;8.80;25.70
46898;DHT22;32646;50.958;6.258;2024-01-27T15:05:02;8.70;25.00
46898;DHT22;32646;50.958;6.258;2024-01-27T15:07:29;8.40;24.70
46898;DHT22;32646;50.958;6.258;2024-01-27T15:09:56;8.30;25.10
46898;DHT22;32646;50.958;6.258;2024-01-27T15:12:23;8.20;25.00
46898;DHT22;32646;50.958;6.258;2024-01-27T15:14:49;7.90;24.40
46898;DHT22;32646;50.958;6.258;2024-01-27T15:17:16;7.80;25.40
46898;DHT22;32646;50.958;6.258;2024-01-27T15:19:43;7.60;28.80
46898;DHT22;32646;50.958;6.258;2024-01-27T15:22:09;7.50;30.60
46898;DHT22;32646;50.958;6.258;2024-01-27T15:24:36;7.40;31.60
46898;DHT22;32646;50.958;6.258;2024-01-27T15:27:03;7.20;33.10
46898;DHT22;32646;50.958;6.258;2024-01-27T15:29:37;7.10;34.90
46898;DHT22;32646;50.958;6.258;2024-01-27T15:32:04;6.90;36.50
46898;DHT22;32646;50.958;6.258;2024-01-27T15:34:30;6.80;39.20
46898;DHT22;32646;50.958;6.258;2024-01-27T15:36:57;6.70;39.60
46898;DHT22;32646;50.958;6.258;2024-01-27T15:39:24;6.60;40.20
46898;DHT22;32646;50.958;6.258;2024-01-27T15:41:51;6.50;41.70